Main page
METAR-TAF:

METAR-TAF

Airports :

Neuburg, Germany

Neuburg Air Base

latitude: 48-43N, longitude: 011-13E, elevation: 380 m

Current weather observation

The report was made 56 minutes ago, at 13:20 UTC
Wind 5 kt from the East/Northeast
Temperature 28°C
Humidity 28%
Pressure 1020 hPa
Visibility 10 km or more
Few clouds at a height of 6000 ft
Broken clouds at a height of 30000 ft

METAR: ETSN 281320Z 07005KT 9999 FEW060 BKN300 28/08 Q1020 BLU+

Time: 16:16 (14:16 UTC)

Forecast

The report was made 1 hour and 16 minutes ago, at 13:00 UTC
Forecast valid from 28 at 14 UTC to 28 at 23 UTC
Wind 5 kt from the East/Northeast
Visibility 10 km or more
Few clouds at a height of 6000 ft
Scattered clouds at a height of 28000 ft

TAF: ETSN 281300Z 2814/2823 07005KT 9999 NSW FEW060 SCT280 BY ETGL

Weather observations and forecasts of more than 4000 airports (METAR and TAF reports).

The available stations are represented by yellow and red dots on the map.

Hover mouse over dot to see the name of the station.

Then click to see weather observations and forecasts.

To change the map : click on the green buttons with a black cross to zoom in, on the green button with a dash to zoom out, or on the green arrows for adjacent maps.


METAR-TAF: